EHAM Airport Information

Runway Information
Runway 04 Length 6608 ft width 148 ft
Elevation 0 ft Threshold 0 ft Heading 41
Runway 22 Length 6608 ft Width 148 ft
Elevation 0 ft Threshold 0 ft Heading 221
Runway 06 Length 11483 ft width 148 ft
Elevation 0 ft Threshold 820 ft Heading 58
Runway 24 Length 11483 ft Width 148 ft
Elevation 0 ft Threshold 0 ft Heading 238
Runway 09 Length 11329 ft width 148 ft
Elevation 0 ft Threshold 294 ft Heading 87
Runway 27 Length 11329 ft Width 148 ft
Elevation 0 ft Threshold 0 ft Heading 267
Runway 18C Length 10826 ft width 148 ft
Elevation 0 ft Threshold 0 ft Heading 183
Runway 36C Length 10826 ft Width 148 ft
Elevation 0 ft Threshold 1476 ft Heading 3
Runway 18L Length 11155 ft width 148 ft
Elevation 0 ft Threshold 1887 ft Heading 183
Runway 36R Length 11155 ft Width 148 ft
Elevation 0 ft Threshold 0 ft Heading 3
Runway 18R Length 12467 ft width 198 ft
Elevation 0 ft Threshold 886 ft Heading 183
Runway 36L Length 12467 ft Width 198 ft
Elevation 0 ft Threshold 0 ft Heading 3
Airport Frequencies
Type APP Name APP/DEP Frequency 119.05 MHZ
Type ARR Name ARR Frequency 118.4 MHZ
Type ATIS Name ATIS Frequency 108.4 MHZ
Type CLD Name CLNC DEL Frequency 121.975 MHZ
Type GND Name GND Frequency 121.7 MHZ
Type TWR Name TWR Frequency 119.225 MHZ
Airport Navaids
Type VOR-DME Name Schiphol Frequency 108400 KHZ
Type VOR-DME Name Spijkerboor Frequency 113300 KHZ
Airport Weather Information & NOTAM
ADDS - METARS form results

(1032 UTC 24 June 2018)
 
METAR text: EHAM 241025Z 32008KT 270V020 9999 FEW026 17/10 Q1024 NOSIG
Conditions at: EHAM (AMSTERDAM/SCHIPH, NL) observed 1025 UTC 24 June 2018
Temperature: 17.0°C (63°F)
Dewpoint: 10.0°C (50°F) [RH = 63%]
Pressure (altimeter): 30.24 inches Hg (1024.0 mb)
Winds: from the NW (320 degrees) at 9 MPH (8 knots; 4.2 m/s)
Visibility: 6 or more miles (10+ km)
Ceiling: at least 12,000 feet AGL
Clouds: few clouds at 2600 feet AGL
Weather: no significant weather observed at this time

METAR text: EHAM 240955Z 31008KT 290V360 9999 FEW029 SCT040 17/10 Q1024 NOSIG
Conditions at: EHAM (AMSTERDAM/SCHIPH, NL) observed 0955 UTC 24 June 2018
Temperature: 17.0°C (63°F)
Dewpoint: 10.0°C (50°F) [RH = 63%]
Pressure (altimeter): 30.24 inches Hg (1024.0 mb)
Winds: from the NW (310 degrees) at 9 MPH (8 knots; 4.2 m/s)
Visibility: 6 or more miles (10+ km)
Ceiling: at least 12,000 feet AGL
Clouds: few clouds at 2900 feet AGL
scattered clouds at 4000 feet AGL
Weather: no significant weather observed at this time